sensor_id;sensor_type;location;lat;lon;timestamp;temperature;humidity
4759;DHT22;2393;50.560;12.636;2023-08-24T00:00:33;16.00;99.90
4759;DHT22;2393;50.560;12.636;2023-08-24T00:03:02;16.00;99.90
4759;DHT22;2393;50.560;12.636;2023-08-24T00:05:33;16.00;99.90
4759;DHT22;2393;50.560;12.636;2023-08-24T00:08:04;16.00;99.90
4759;DHT22;2393;50.560;12.636;2023-08-24T00:10:32;16.00;99.90
4759;DHT22;2393;50.560;12.636;2023-08-24T00:13:01;16.00;99.90
4759;DHT22;2393;50.560;12.636;2023-08-24T00:15:30;15.90;99.90
4759;DHT22;2393;50.560;12.636;2023-08-24T00:18:00;15.90;99.90
4759;DHT22;2393;50.560;12.636;2023-08-24T00:20:28;15.90;99.90
4759;DHT22;2393;50.560;12.636;2023-08-24T00:22:57;15.90;99.90
4759;DHT22;2393;50.560;12.636;2023-08-24T00:25:25;15.90;99.90
4759;DHT22;2393;50.560;12.636;2023-08-24T00:27:54;15.90;99.90
4759;DHT22;2393;50.560;12.636;2023-08-24T00:30:24;15.80;99.90
4759;DHT22;2393;50.560;12.636;2023-08-24T00:32:52;15.80;99.90
4759;DHT22;2393;50.560;12.636;2023-08-24T00:35:22;15.70;99.90
4759;DHT22;2393;50.560;12.636;2023-08-24T00:37:51;15.60;99.90
4759;DHT22;2393;50.560;12.636;2023-08-24T00:40:20;15.60;99.90
4759;DHT22;2393;50.560;12.636;2023-08-24T00:42:48;15.50;99.90
4759;DHT22;2393;50.560;12.636;2023-08-24T00:45:17;15.50;99.90
4759;DHT22;2393;50.560;12.636;2023-08-24T00:47:47;15.50;99.90
4759;DHT22;2393;50.560;12.636;2023-08-24T00:50:17;15.50;99.90
4759;DHT22;2393;50.560;12.636;2023-08-24T00:52:47;15.40;99.90
4759;DHT22;2393;50.560;12.636;2023-08-24T00:55:20;15.40;99.90
4759;DHT22;2393;50.560;12.636;2023-08-24T00:57:50;15.40;99.90
4759;DHT22;2393;50.560;12.636;2023-08-24T01:00:19;15.40;99.90
4759;DHT22;2393;50.560;12.636;2023-08-24T01:02:49;15.30;99.90
4759;DHT22;2393;50.560;12.636;2023-08-24T01:05:17;15.30;99.90
4759;DHT22;2393;50.560;12.636;2023-08-24T01:07:47;15.40;99.90
4759;DHT22;2393;50.560;12.636;2023-08-24T01:10:17;15.40;99.90
4759;DHT22;2393;50.560;12.636;2023-08-24T01:12:57;15.40;99.90
4759;DHT22;2393;50.560;12.636;2023-08-24T01:15:32;15.40;99.90
4759;DHT22;2393;50.560;12.636;2023-08-24T01:18:05;15.30;99.90
4759;DHT22;2393;50.560;12.636;2023-08-24T01:20:34;15.20;99.90
4759;DHT22;2393;50.560;12.636;2023-08-24T01:23:14;15.20;99.90
4759;DHT22;2393;50.560;12.636;2023-08-24T01:25:51;15.10;99.90
4759;DHT22;2393;50.560;12.636;2023-08-24T01:28:22;15.10;99.90
4759;DHT22;2393;50.560;12.636;2023-08-24T01:30:51;15.00;99.90
4759;DHT22;2393;50.560;12.636;2023-08-24T01:33:19;14.90;99.90
4759;DHT22;2393;50.560;12.636;2023-08-24T01:35:49;14.90;99.90
4759;DHT22;2393;50.560;12.636;2023-08-24T01:38:17;14.80;99.90
4759;DHT22;2393;50.560;12.636;2023-08-24T01:40:51;14.80;99.90
4759;DHT22;2393;50.560;12.636;2023-08-24T01:43:26;14.80;99.90
4759;DHT22;2393;50.560;12.636;2023-08-24T01:46:13;14.90;99.90
4759;DHT22;2393;50.560;12.636;2023-08-24T01:48:43;14.90;99.90
4759;DHT22;2393;50.560;12.636;2023-08-24T01:51:12;14.90;99.90
4759;DHT22;2393;50.560;12.636;2023-08-24T01:53:41;14.90;99.90
4759;DHT22;2393;50.560;12.636;2023-08-24T01:56:11;14.90;99.90
4759;DHT22;2393;50.560;12.636;2023-08-24T01:58:43;14.90;99.90
4759;DHT22;2393;50.560;12.636;2023-08-24T02:01:10;14.90;99.90
4759;DHT22;2393;50.560;12.636;2023-08-24T02:03:39;14.90;99.90
4759;DHT22;2393;50.560;12.636;2023-08-24T02:06:08;14.90;99.90
4759;DHT22;2393;50.560;12.636;2023-08-24T02:08:37;14.90;99.90
4759;DHT22;2393;50.560;12.636;2023-08-24T02:11:06;14.80;99.90
4759;DHT22;2393;50.560;12.636;2023-08-24T02:13:35;14.70;99.90
4759;DHT22;2393;50.560;12.636;2023-08-24T02:16:07;14.60;99.90
4759;DHT22;2393;50.560;12.636;2023-08-24T02:18:36;14.60;99.90
4759;DHT22;2393;50.560;12.636;2023-08-24T02:21:08;14.50;99.90
4759;DHT22;2393;50.560;12.636;2023-08-24T02:23:37;14.50;99.90
4759;DHT22;2393;50.560;12.636;2023-08-24T02:26:06;14.50;99.90
4759;DHT22;2393;50.560;12.636;2023-08-24T02:28:37;14.50;99.90
4759;DHT22;2393;50.560;12.636;2023-08-24T02:31:07;14.50;99.90
4759;DHT22;2393;50.560;12.636;2023-08-24T02:33:35;14.50;99.90
4759;DHT22;2393;50.560;12.636;2023-08-24T02:36:04;14.40;99.90
4759;DHT22;2393;50.560;12.636;2023-08-24T02:38:32;14.50;99.90
4759;DHT22;2393;50.560;12.636;2023-08-24T02:41:02;14.40;99.90
4759;DHT22;2393;50.560;12.636;2023-08-24T02:43:31;14.40;99.90
4759;DHT22;2393;50.560;12.636;2023-08-24T02:46:01;14.40;99.90
4759;DHT22;2393;50.560;12.636;2023-08-24T02:48:32;14.40;99.90
4759;DHT22;2393;50.560;12.636;2023-08-24T02:51:03;14.30;99.90
4759;DHT22;2393;50.560;12.636;2023-08-24T02:53:32;14.30;99.90
4759;DHT22;2393;50.560;12.636;2023-08-24T02:56:01;14.30;99.90
4759;DHT22;2393;50.560;12.636;2023-08-24T02:58:29;14.20;99.90
4759;DHT22;2393;50.560;12.636;2023-08-24T03:00:58;14.20;99.90
4759;DHT22;2393;50.560;12.636;2023-08-24T03:03:27;14.10;99.90
4759;DHT22;2393;50.560;12.636;2023-08-24T03:05:59;14.10;99.90
4759;DHT22;2393;50.560;12.636;2023-08-24T03:08:29;14.00;99.90
4759;DHT22;2393;50.560;12.636;2023-08-24T03:10:58;14.00;99.90
4759;DHT22;2393;50.560;12.636;2023-08-24T03:13:27;14.00;99.90
4759;DHT22;2393;50.560;12.636;2023-08-24T03:15:56;14.00;99.90
4759;DHT22;2393;50.560;12.636;2023-08-24T03:18:28;13.90;99.90
4759;DHT22;2393;50.560;12.636;2023-08-24T03:20:57;13.90;99.90
4759;DHT22;2393;50.560;12.636;2023-08-24T03:23:26;13.90;99.90
4759;DHT22;2393;50.560;12.636;2023-08-24T03:25:55;13.80;99.90
4759;DHT22;2393;50.560;12.636;2023-08-24T03:28:24;13.80;99.90
4759;DHT22;2393;50.560;12.636;2023-08-24T03:30:53;13.80;99.90
4759;DHT22;2393;50.560;12.636;2023-08-24T03:33:23;13.80;99.90
4759;DHT22;2393;50.560;12.636;2023-08-24T03:35:51;13.80;99.90
4759;DHT22;2393;50.560;12.636;2023-08-24T03:38:22;13.80;99.90
4759;DHT22;2393;50.560;12.636;2023-08-24T03:40:51;13.70;99.90
4759;DHT22;2393;50.560;12.636;2023-08-24T03:43:19;13.80;99.90
4759;DHT22;2393;50.560;12.636;2023-08-24T03:45:48;13.80;99.90
4759;DHT22;2393;50.560;12.636;2023-08-24T03:48:16;13.80;99.90
4759;DHT22;2393;50.560;12.636;2023-08-24T03:50:46;13.80;99.90
4759;DHT22;2393;50.560;12.636;2023-08-24T03:53:15;13.80;99.90
4759;DHT22;2393;50.560;12.636;2023-08-24T03:55:47;13.80;99.90
4759;DHT22;2393;50.560;12.636;2023-08-24T03:58:17;13.80;99.90
4759;DHT22;2393;50.560;12.636;2023-08-24T04:00:45;13.80;99.90
4759;DHT22;2393;50.560;12.636;2023-08-24T04:03:14;13.70;99.90
4759;DHT22;2393;50.560;12.636;2023-08-24T04:05:42;13.70;99.90
4759;DHT22;2393;50.560;12.636;2023-08-24T04:08:11;13.70;99.90
4759;DHT22;2393;50.560;12.636;2023-08-24T04:10:39;13.70;99.90
4759;DHT22;2393;50.560;12.636;2023-08-24T04:13:09;13.60;99.90
4759;DHT22;2393;50.560;12.636;2023-08-24T04:15:37;13.60;99.90
4759;DHT22;2393;50.560;12.636;2023-08-24T04:18:06;13.50;99.90
4759;DHT22;2393;50.560;12.636;2023-08-24T04:20:35;13.50;99.90
4759;DHT22;2393;50.560;12.636;2023-08-24T04:23:03;13.40;99.90
4759;DHT22;2393;50.560;12.636;2023-08-24T04:25:34;13.40;99.90
4759;DHT22;2393;50.560;12.636;2023-08-24T04:28:02;13.40;99.90
4759;DHT22;2393;50.560;12.636;2023-08-24T04:30:32;13.40;99.90
4759;DHT22;2393;50.560;12.636;2023-08-24T04:33:01;13.40;99.90
4759;DHT22;2393;50.560;12.636;2023-08-24T04:35:34;13.40;99.90
4759;DHT22;2393;50.560;12.636;2023-08-24T04:38:03;13.50;99.90
4759;DHT22;2393;50.560;12.636;2023-08-24T04:40:48;13.60;99.90
4759;DHT22;2393;50.560;12.636;2023-08-24T04:43:18;13.60;99.90
4759;DHT22;2393;50.560;12.636;2023-08-24T04:45:51;13.60;99.90
4759;DHT22;2393;50.560;12.636;2023-08-24T04:48:20;13.60;99.90
4759;DHT22;2393;50.560;12.636;2023-08-24T04:50:48;13.70;99.90
4759;DHT22;2393;50.560;12.636;2023-08-24T04:53:18;13.70;99.90
4759;DHT22;2393;50.560;12.636;2023-08-24T04:55:46;13.80;99.90
4759;DHT22;2393;50.560;12.636;2023-08-24T04:58:15;13.80;99.90
4759;DHT22;2393;50.560;12.636;2023-08-24T05:00:43;13.80;99.90
4759;DHT22;2393;50.560;12.636;2023-08-24T05:03:13;13.90;99.90
4759;DHT22;2393;50.560;12.636;2023-08-24T05:05:42;13.90;99.90
4759;DHT22;2393;50.560;12.636;2023-08-24T05:08:10;14.00;99.90
4759;DHT22;2393;50.560;12.636;2023-08-24T05:10:39;14.10;99.90
4759;DHT22;2393;50.560;12.636;2023-08-24T05:13:08;14.20;99.90
4759;DHT22;2393;50.560;12.636;2023-08-24T05:15:36;14.30;99.90
4759;DHT22;2393;50.560;12.636;2023-08-24T05:18:04;14.90;99.90
4759;DHT22;2393;50.560;12.636;2023-08-24T05:20:34;15.50;99.90
4759;DHT22;2393;50.560;12.636;2023-08-24T05:23:03;16.30;99.90
4759;DHT22;2393;50.560;12.636;2023-08-24T05:25:31;17.10;99.90
4759;DHT22;2393;50.560;12.636;2023-08-24T05:28:01;17.80;99.90
4759;DHT22;2393;50.560;12.636;2023-08-24T05:30:30;18.50;99.90
4759;DHT22;2393;50.560;12.636;2023-08-24T05:32:58;19.10;99.90
4759;DHT22;2393;50.560;12.636;2023-08-24T05:35:27;19.70;99.90
4759;DHT22;2393;50.560;12.636;2023-08-24T05:37:57;20.30;99.90
4759;DHT22;2393;50.560;12.636;2023-08-24T05:40:25;20.80;99.90
4759;DHT22;2393;50.560;12.636;2023-08-24T05:42:53;21.30;99.90
4759;DHT22;2393;50.560;12.636;2023-08-24T05:45:22;21.70;99.90
4759;DHT22;2393;50.560;12.636;2023-08-24T05:47:52;22.20;99.90
4759;DHT22;2393;50.560;12.636;2023-08-24T05:50:21;22.60;99.90
4759;DHT22;2393;50.560;12.636;2023-08-24T05:52:50;22.90;99.90
4759;DHT22;2393;50.560;12.636;2023-08-24T05:55:20;23.40;99.90
4759;DHT22;2393;50.560;12.636;2023-08-24T05:57:48;23.60;99.90
4759;DHT22;2393;50.560;12.636;2023-08-24T06:00:17;23.90;99.90
4759;DHT22;2393;50.560;12.636;2023-08-24T06:02:46;24.20;99.90
4759;DHT22;2393;50.560;12.636;2023-08-24T06:05:14;24.50;99.90
4759;DHT22;2393;50.560;12.636;2023-08-24T06:07:44;24.70;99.90
4759;DHT22;2393;50.560;12.636;2023-08-24T06:10:13;25.00;99.90
4759;DHT22;2393;50.560;12.636;2023-08-24T06:12:43;25.20;99.90
4759;DHT22;2393;50.560;12.636;2023-08-24T06:15:11;25.50;99.90
4759;DHT22;2393;50.560;12.636;2023-08-24T06:17:41;25.70;99.90
4759;DHT22;2393;50.560;12.636;2023-08-24T06:20:10;26.00;99.90
4759;DHT22;2393;50.560;12.636;2023-08-24T06:22:39;26.10;99.90
4759;DHT22;2393;50.560;12.636;2023-08-24T06:25:09;26.30;99.90
4759;DHT22;2393;50.560;12.636;2023-08-24T06:27:37;26.60;99.90
4759;DHT22;2393;50.560;12.636;2023-08-24T06:30:08;26.80;99.90
4759;DHT22;2393;50.560;12.636;2023-08-24T06:32:36;26.90;99.90
4759;DHT22;2393;50.560;12.636;2023-08-24T06:35:05;27.10;99.90
4759;DHT22;2393;50.560;12.636;2023-08-24T06:37:34;27.20;99.90
4759;DHT22;2393;50.560;12.636;2023-08-24T06:40:02;27.40;99.90
4759;DHT22;2393;50.560;12.636;2023-08-24T06:42:32;27.50;99.90
4759;DHT22;2393;50.560;12.636;2023-08-24T06:45:00;27.60;99.90
4759;DHT22;2393;50.560;12.636;2023-08-24T06:47:30;27.70;99.90
4759;DHT22;2393;50.560;12.636;2023-08-24T06:49:58;27.90;99.90
4759;DHT22;2393;50.560;12.636;2023-08-24T06:52:27;28.10;99.90
4759;DHT22;2393;50.560;12.636;2023-08-24T06:54:55;28.00;99.90
4759;DHT22;2393;50.560;12.636;2023-08-24T06:57:24;27.90;99.90
4759;DHT22;2393;50.560;12.636;2023-08-24T06:59:52;27.90;99.90
4759;DHT22;2393;50.560;12.636;2023-08-24T07:02:21;27.90;99.90
4759;DHT22;2393;50.560;12.636;2023-08-24T07:04:51;28.00;99.90
4759;DHT22;2393;50.560;12.636;2023-08-24T07:07:19;28.20;99.90
4759;DHT22;2393;50.560;12.636;2023-08-24T07:09:47;28.50;99.90
4759;DHT22;2393;50.560;12.636;2023-08-24T07:12:16;28.70;99.90
4759;DHT22;2393;50.560;12.636;2023-08-24T07:14:44;28.90;99.90
4759;DHT22;2393;50.560;12.636;2023-08-24T07:17:12;29.00;99.90
4759;DHT22;2393;50.560;12.636;2023-08-24T07:19:41;29.10;99.90
4759;DHT22;2393;50.560;12.636;2023-08-24T07:22:10;29.20;99.90
4759;DHT22;2393;50.560;12.636;2023-08-24T07:24:39;29.40;99.90
4759;DHT22;2393;50.560;12.636;2023-08-24T07:27:12;29.50;99.90
4759;DHT22;2393;50.560;12.636;2023-08-24T07:29:41;29.80;99.90
4759;DHT22;2393;50.560;12.636;2023-08-24T07:32:09;30.10;99.90
4759;DHT22;2393;50.560;12.636;2023-08-24T07:34:38;30.30;99.90
4759;DHT22;2393;50.560;12.636;2023-08-24T07:37:06;30.30;99.90
4759;DHT22;2393;50.560;12.636;2023-08-24T07:39:37;30.40;99.90
4759;DHT22;2393;50.560;12.636;2023-08-24T07:42:06;30.60;99.90
4759;DHT22;2393;50.560;12.636;2023-08-24T07:44:34;30.90;99.90
4759;DHT22;2393;50.560;12.636;2023-08-24T07:47:03;31.20;99.90
4759;DHT22;2393;50.560;12.636;2023-08-24T07:49:31;31.40;99.90
4759;DHT22;2393;50.560;12.636;2023-08-24T07:52:00;31.40;99.90
4759;DHT22;2393;50.560;12.636;2023-08-24T07:54:28;31.40;99.90
4759;DHT22;2393;50.560;12.636;2023-08-24T07:56:58;31.30;99.90
4759;DHT22;2393;50.560;12.636;2023-08-24T07:59:26;31.30;99.90
4759;DHT22;2393;50.560;12.636;2023-08-24T08:01:54;31.30;99.90
4759;DHT22;2393;50.560;12.636;2023-08-24T08:04:23;31.30;99.90
4759;DHT22;2393;50.560;12.636;2023-08-24T08:06:51;31.40;99.90
4759;DHT22;2393;50.560;12.636;2023-08-24T08:09:20;31.40;99.90
4759;DHT22;2393;50.560;12.636;2023-08-24T08:11:48;31.50;99.90
4759;DHT22;2393;50.560;12.636;2023-08-24T08:14:19;31.40;99.90
4759;DHT22;2393;50.560;12.636;2023-08-24T08:16:48;31.20;99.90
4759;DHT22;2393;50.560;12.636;2023-08-24T08:19:16;31.20;99.90
4759;DHT22;2393;50.560;12.636;2023-08-24T08:21:46;31.30;99.90
4759;DHT22;2393;50.560;12.636;2023-08-24T08:24:17;31.50;99.90
4759;DHT22;2393;50.560;12.636;2023-08-24T08:26:52;31.60;99.90
4759;DHT22;2393;50.560;12.636;2023-08-24T08:29:22;31.00;98.60
4759;DHT22;2393;50.560;12.636;2023-08-24T08:31:51;31.00;98.80
4759;DHT22;2393;50.560;12.636;2023-08-24T08:34:19;31.20;99.90
4759;DHT22;2393;50.560;12.636;2023-08-24T08:36:48;30.90;99.90
4759;DHT22;2393;50.560;12.636;2023-08-24T08:39:16;30.70;99.90
4759;DHT22;2393;50.560;12.636;2023-08-24T08:41:47;30.80;99.90
4759;DHT22;2393;50.560;12.636;2023-08-24T08:44:17;30.90;99.80
4759;DHT22;2393;50.560;12.636;2023-08-24T08:46:49;31.10;99.80
4759;DHT22;2393;50.560;12.636;2023-08-24T08:49:19;31.30;99.70
4759;DHT22;2393;50.560;12.636;2023-08-24T08:51:48;31.50;99.90
4759;DHT22;2393;50.560;12.636;2023-08-24T08:54:18;31.60;99.10
4759;DHT22;2393;50.560;12.636;2023-08-24T08:56:46;31.70;98.30
4759;DHT22;2393;50.560;12.636;2023-08-24T08:59:15;31.90;98.20
4759;DHT22;2393;50.560;12.636;2023-08-24T09:01:45;31.90;98.50
4759;DHT22;2393;50.560;12.636;2023-08-24T09:04:16;32.10;98.50
4759;DHT22;2393;50.560;12.636;2023-08-24T09:06:44;32.20;96.70
4759;DHT22;2393;50.560;12.636;2023-08-24T09:09:13;31.90;96.50
4759;DHT22;2393;50.560;12.636;2023-08-24T09:11:43;32.00;97.20
4759;DHT22;2393;50.560;12.636;2023-08-24T09:14:14;32.00;97.20
4759;DHT22;2393;50.560;12.636;2023-08-24T09:16:43;32.20;99.40
4759;DHT22;2393;50.560;12.636;2023-08-24T09:19:12;32.20;96.70
4759;DHT22;2393;50.560;12.636;2023-08-24T09:21:42;32.20;95.00
4759;DHT22;2393;50.560;12.636;2023-08-24T09:24:11;32.00;94.40
4759;DHT22;2393;50.560;12.636;2023-08-24T09:26:39;32.10;95.40
4759;DHT22;2393;50.560;12.636;2023-08-24T09:29:14;32.20;95.60
4759;DHT22;2393;50.560;12.636;2023-08-24T09:31:43;32.50;97.70
4759;DHT22;2393;50.560;12.636;2023-08-24T09:34:12;32.50;95.60
4759;DHT22;2393;50.560;12.636;2023-08-24T09:36:43;32.60;93.90
4759;DHT22;2393;50.560;12.636;2023-08-24T09:39:16;32.70;95.90
4759;DHT22;2393;50.560;12.636;2023-08-24T09:41:48;32.90;95.30
4759;DHT22;2393;50.560;12.636;2023-08-24T09:44:17;33.00;95.30
4759;DHT22;2393;50.560;12.636;2023-08-24T09:46:46;32.90;95.40
4759;DHT22;2393;50.560;12.636;2023-08-24T09:49:14;32.90;94.70
4759;DHT22;2393;50.560;12.636;2023-08-24T09:51:45;32.90;95.30
4759;DHT22;2393;50.560;12.636;2023-08-24T09:54:15;32.80;94.30
4759;DHT22;2393;50.560;12.636;2023-08-24T09:56:48;32.90;94.40
4759;DHT22;2393;50.560;12.636;2023-08-24T09:59:19;33.00;94.40
4759;DHT22;2393;50.560;12.636;2023-08-24T10:01:51;32.90;95.20
4759;DHT22;2393;50.560;12.636;2023-08-24T10:04:23;32.90;94.60
4759;DHT22;2393;50.560;12.636;2023-08-24T10:06:57;32.80;93.80
4759;DHT22;2393;50.560;12.636;2023-08-24T10:09:29;32.70;93.40
4759;DHT22;2393;50.560;12.636;2023-08-24T10:12:02;32.60;93.70
4759;DHT22;2393;50.560;12.636;2023-08-24T10:14:38;32.40;94.40
4759;DHT22;2393;50.560;12.636;2023-08-24T10:17:11;32.00;93.70
4759;DHT22;2393;50.560;12.636;2023-08-24T10:19:42;31.70;94.00
4759;DHT22;2393;50.560;12.636;2023-08-24T10:22:13;31.40;94.10
4759;DHT22;2393;50.560;12.636;2023-08-24T10:24:42;31.20;95.30
4759;DHT22;2393;50.560;12.636;2023-08-24T10:27:13;31.00;94.50
4759;DHT22;2393;50.560;12.636;2023-08-24T10:29:42;30.80;96.70
4759;DHT22;2393;50.560;12.636;2023-08-24T10:32:10;30.60;96.60
4759;DHT22;2393;50.560;12.636;2023-08-24T10:34:39;30.30;96.30
4759;DHT22;2393;50.560;12.636;2023-08-24T10:37:09;30.10;99.10
4759;DHT22;2393;50.560;12.636;2023-08-24T10:39:44;29.90;99.20
4759;DHT22;2393;50.560;12.636;2023-08-24T10:42:13;29.70;99.90
4759;DHT22;2393;50.560;12.636;2023-08-24T10:44:44;29.50;99.70
4759;DHT22;2393;50.560;12.636;2023-08-24T10:47:14;29.40;99.20
4759;DHT22;2393;50.560;12.636;2023-08-24T10:49:44;29.30;99.90
4759;DHT22;2393;50.560;12.636;2023-08-24T10:52:20;29.20;99.70
4759;DHT22;2393;50.560;12.636;2023-08-24T10:54:51;28.90;99.10
4759;DHT22;2393;50.560;12.636;2023-08-24T10:57:21;28.80;98.90
4759;DHT22;2393;50.560;12.636;2023-08-24T11:00:00;28.80;99.30
4759;DHT22;2393;50.560;12.636;2023-08-24T11:02:43;28.80;99.90
4759;DHT22;2393;50.560;12.636;2023-08-24T11:05:17;28.60;99.90
4759;DHT22;2393;50.560;12.636;2023-08-24T11:07:54;28.50;99.90
4759;DHT22;2393;50.560;12.636;2023-08-24T11:10:25;28.40;99.90
4759;DHT22;2393;50.560;12.636;2023-08-24T11:13:07;28.40;99.90
4759;DHT22;2393;50.560;12.636;2023-08-24T11:15:40;28.40;99.90
4759;DHT22;2393;50.560;12.636;2023-08-24T11:18:14;28.60;99.90
4759;DHT22;2393;50.560;12.636;2023-08-24T11:20:44;28.90;99.90
4759;DHT22;2393;50.560;12.636;2023-08-24T11:23:14;29.20;99.90
4759;DHT22;2393;50.560;12.636;2023-08-24T11:25:44;29.40;99.90
4759;DHT22;2393;50.560;12.636;2023-08-24T11:28:17;29.50;99.90
4759;DHT22;2393;50.560;12.636;2023-08-24T11:30:47;29.50;99.90
4759;DHT22;2393;50.560;12.636;2023-08-24T11:33:15;29.30;99.90
4759;DHT22;2393;50.560;12.636;2023-08-24T11:35:45;29.20;99.90
4759;DHT22;2393;50.560;12.636;2023-08-24T11:38:13;29.20;99.90
4759;DHT22;2393;50.560;12.636;2023-08-24T11:40:43;29.10;99.90
4759;DHT22;2393;50.560;12.636;2023-08-24T11:43:11;28.90;99.50
4759;DHT22;2393;50.560;12.636;2023-08-24T11:45:40;28.80;99.90
4759;DHT22;2393;50.560;12.636;2023-08-24T11:48:09;28.60;99.90
4759;DHT22;2393;50.560;12.636;2023-08-24T11:50:39;28.60;99.90
4759;DHT22;2393;50.560;12.636;2023-08-24T11:53:07;28.60;99.90
4759;DHT22;2393;50.560;12.636;2023-08-24T11:55:39;28.60;99.90
4759;DHT22;2393;50.560;12.636;2023-08-24T11:58:27;28.50;99.90
4759;DHT22;2393;50.560;12.636;2023-08-24T12:00:55;28.50;99.90
4759;DHT22;2393;50.560;12.636;2023-08-24T12:03:24;28.60;99.90
4759;DHT22;2393;50.560;12.636;2023-08-24T12:05:52;28.70;99.90
4759;DHT22;2393;50.560;12.636;2023-08-24T12:08:21;28.80;99.90
4759;DHT22;2393;50.560;12.636;2023-08-24T12:10:49;29.00;99.90
4759;DHT22;2393;50.560;12.636;2023-08-24T12:13:17;29.20;99.90
4759;DHT22;2393;50.560;12.636;2023-08-24T12:15:47;29.40;99.90
4759;DHT22;2393;50.560;12.636;2023-08-24T12:18:17;29.70;99.90
4759;DHT22;2393;50.560;12.636;2023-08-24T12:20:47;30.20;99.90
4759;DHT22;2393;50.560;12.636;2023-08-24T12:23:16;29.80;98.60
4759;DHT22;2393;50.560;12.636;2023-08-24T12:25:44;30.00;99.90
4759;DHT22;2393;50.560;12.636;2023-08-24T12:28:13;29.80;99.90
4759;DHT22;2393;50.560;12.636;2023-08-24T12:30:48;29.80;98.80
4759;DHT22;2393;50.560;12.636;2023-08-24T12:33:22;29.80;98.70
4759;DHT22;2393;50.560;12.636;2023-08-24T12:35:50;29.90;99.90
4759;DHT22;2393;50.560;12.636;2023-08-24T12:38:19;29.90;99.90
4759;DHT22;2393;50.560;12.636;2023-08-24T12:40:48;30.00;99.90
4759;DHT22;2393;50.560;12.636;2023-08-24T12:43:16;30.00;99.90
4759;DHT22;2393;50.560;12.636;2023-08-24T12:45:44;30.10;99.90
4759;DHT22;2393;50.560;12.636;2023-08-24T12:48:14;30.20;99.90
4759;DHT22;2393;50.560;12.636;2023-08-24T12:50:43;30.20;99.90
4759;DHT22;2393;50.560;12.636;2023-08-24T12:53:11;30.30;98.60
4759;DHT22;2393;50.560;12.636;2023-08-24T12:55:40;30.60;98.20
4759;DHT22;2393;50.560;12.636;2023-08-24T12:58:08;30.90;99.90
4759;DHT22;2393;50.560;12.636;2023-08-24T13:00:37;31.10;98.50
4759;DHT22;2393;50.560;12.636;2023-08-24T13:03:07;31.20;97.00
4759;DHT22;2393;50.560;12.636;2023-08-24T13:05:37;31.50;96.00
4759;DHT22;2393;50.560;12.636;2023-08-24T13:08:06;31.60;95.00
4759;DHT22;2393;50.560;12.636;2023-08-24T13:10:34;31.70;95.50
4759;DHT22;2393;50.560;12.636;2023-08-24T13:13:03;31.70;93.30
4759;DHT22;2393;50.560;12.636;2023-08-24T13:15:32;31.90;94.10
4759;DHT22;2393;50.560;12.636;2023-08-24T13:18:00;31.60;91.60
4759;DHT22;2393;50.560;12.636;2023-08-24T13:20:29;31.30;92.40
4759;DHT22;2393;50.560;12.636;2023-08-24T13:22:58;31.00;91.90
4759;DHT22;2393;50.560;12.636;2023-08-24T13:25:27;31.10;91.70
4759;DHT22;2393;50.560;12.636;2023-08-24T13:27:55;31.30;96.00
4759;DHT22;2393;50.560;12.636;2023-08-24T13:30:24;31.10;91.10
4759;DHT22;2393;50.560;12.636;2023-08-24T13:32:52;31.20;94.10
4759;DHT22;2393;50.560;12.636;2023-08-24T13:35:21;31.30;92.00
4759;DHT22;2393;50.560;12.636;2023-08-24T13:37:49;31.50;92.00
4759;DHT22;2393;50.560;12.636;2023-08-24T13:40:19;31.80;94.80
4759;DHT22;2393;50.560;12.636;2023-08-24T13:42:48;31.90;92.40
4759;DHT22;2393;50.560;12.636;2023-08-24T13:45:16;32.10;91.70
4759;DHT22;2393;50.560;12.636;2023-08-24T13:47:46;32.40;91.40
4759;DHT22;2393;50.560;12.636;2023-08-24T13:50:14;32.60;92.50
4759;DHT22;2393;50.560;12.636;2023-08-24T13:52:43;32.40;91.70
4759;DHT22;2393;50.560;12.636;2023-08-24T13:55:11;32.20;91.40
4759;DHT22;2393;50.560;12.636;2023-08-24T13:57:42;32.40;95.10
4759;DHT22;2393;50.560;12.636;2023-08-24T14:00:11;32.60;95.00
4759;DHT22;2393;50.560;12.636;2023-08-24T14:02:40;32.80;92.80
4759;DHT22;2393;50.560;12.636;2023-08-24T14:05:09;32.90;92.20
4759;DHT22;2393;50.560;12.636;2023-08-24T14:07:38;32.80;90.80
4759;DHT22;2393;50.560;12.636;2023-08-24T14:10:07;32.70;91.10
4759;DHT22;2393;50.560;12.636;2023-08-24T14:12:35;32.70;92.90
4759;DHT22;2393;50.560;12.636;2023-08-24T14:15:06;32.80;93.80
4759;DHT22;2393;50.560;12.636;2023-08-24T14:17:35;32.90;93.60
4759;DHT22;2393;50.560;12.636;2023-08-24T14:20:04;33.00;93.50
4759;DHT22;2393;50.560;12.636;2023-08-24T14:22:32;33.00;93.10
4759;DHT22;2393;50.560;12.636;2023-08-24T14:25:01;32.90;91.70
4759;DHT22;2393;50.560;12.636;2023-08-24T14:27:29;32.90;91.30
4759;DHT22;2393;50.560;12.636;2023-08-24T14:29:58;33.00;91.80
4759;DHT22;2393;50.560;12.636;2023-08-24T14:32:27;33.00;92.00
4759;DHT22;2393;50.560;12.636;2023-08-24T14:34:56;33.10;91.10
4759;DHT22;2393;50.560;12.636;2023-08-24T14:37:24;33.10;91.40
4759;DHT22;2393;50.560;12.636;2023-08-24T14:39:53;32.90;90.30
4759;DHT22;2393;50.560;12.636;2023-08-24T14:42:21;32.90;94.40
4759;DHT22;2393;50.560;12.636;2023-08-24T14:44:49;32.90;92.50
4759;DHT22;2393;50.560;12.636;2023-08-24T14:47:18;33.00;91.80
4759;DHT22;2393;50.560;12.636;2023-08-24T14:49:49;32.90;90.80
4759;DHT22;2393;50.560;12.636;2023-08-24T14:52:17;32.90;92.30
4759;DHT22;2393;50.560;12.636;2023-08-24T14:54:46;32.70;90.70
4759;DHT22;2393;50.560;12.636;2023-08-24T14:57:15;32.50;92.00
4759;DHT22;2393;50.560;12.636;2023-08-24T14:59:43;32.40;92.70
4759;DHT22;2393;50.560;12.636;2023-08-24T15:02:12;32.40;92.70
4759;DHT22;2393;50.560;12.636;2023-08-24T15:04:41;32.30;91.80
4759;DHT22;2393;50.560;12.636;2023-08-24T15:07:11;32.40;91.70
4759;DHT22;2393;50.560;12.636;2023-08-24T15:09:39;32.40;91.30
4759;DHT22;2393;50.560;12.636;2023-08-24T15:12:07;32.20;90.50
4759;DHT22;2393;50.560;12.636;2023-08-24T15:14:36;32.20;90.70
4759;DHT22;2393;50.560;12.636;2023-08-24T15:17:04;32.20;91.80
4759;DHT22;2393;50.560;12.636;2023-08-24T15:19:33;32.10;92.60
4759;DHT22;2393;50.560;12.636;2023-08-24T15:22:01;32.10;91.80
4759;DHT22;2393;50.560;12.636;2023-08-24T15:24:31;32.00;92.20
4759;DHT22;2393;50.560;12.636;2023-08-24T15:26:59;32.00;94.10
4759;DHT22;2393;50.560;12.636;2023-08-24T15:29:27;32.00;93.70
4759;DHT22;2393;50.560;12.636;2023-08-24T15:31:56;32.00;94.50
4759;DHT22;2393;50.560;12.636;2023-08-24T15:34:24;32.00;94.30
4759;DHT22;2393;50.560;12.636;2023-08-24T15:36:52;32.00;92.80
4759;DHT22;2393;50.560;12.636;2023-08-24T15:39:21;32.00;92.80
4759;DHT22;2393;50.560;12.636;2023-08-24T15:41:51;32.00;92.70
4759;DHT22;2393;50.560;12.636;2023-08-24T15:44:19;32.00;91.70
4759;DHT22;2393;50.560;12.636;2023-08-24T15:46:48;32.00;92.80
4759;DHT22;2393;50.560;12.636;2023-08-24T15:49:16;31.90;92.60
4759;DHT22;2393;50.560;12.636;2023-08-24T15:51:45;31.80;93.50
4759;DHT22;2393;50.560;12.636;2023-08-24T15:54:13;31.70;93.00
4759;DHT22;2393;50.560;12.636;2023-08-24T15:56:42;31.60;93.70
4759;DHT22;2393;50.560;12.636;2023-08-24T15:59:18;31.60;93.30